sensor_id;sensor_type;location;lat;lon;timestamp;pressure;altitude;pressure_sealevel;temperature;humidity
48390;BME280;34643;47.964;7.982;2023-05-08T00:04:13;96976.63;;;20.06;65.82
48390;BME280;34643;47.964;7.982;2023-05-08T00:09:13;96974.03;;;20.06;66.02
48390;BME280;34643;47.964;7.982;2023-05-08T00:14:14;96978.44;;;20.06;65.83
48390;BME280;34643;47.964;7.982;2023-05-08T00:19:14;96982.00;;;20.05;65.92
48390;BME280;34643;47.964;7.982;2023-05-08T00:24:14;96975.94;;;20.04;66.27
48390;BME280;34643;47.964;7.982;2023-05-08T00:29:14;96980.31;;;20.04;66.09
48390;BME280;34643;47.964;7.982;2023-05-08T00:34:15;96971.66;;;20.03;65.95
48390;BME280;34643;47.964;7.982;2023-05-08T00:39:15;96975.09;;;20.04;65.99
48390;BME280;34643;47.964;7.982;2023-05-08T00:44:15;96975.25;;;20.02;66.17
48390;BME280;34643;47.964;7.982;2023-05-08T00:49:16;96977.00;;;20.02;65.92
48390;BME280;34643;47.964;7.982;2023-05-08T00:54:16;96981.44;;;20.01;66.09
48390;BME280;34643;47.964;7.982;2023-05-08T00:59:17;96982.25;;;20.02;66.15
48390;BME280;34643;47.964;7.982;2023-05-08T01:04:20;96986.66;;;20.01;66.01
48390;BME280;34643;47.964;7.982;2023-05-08T01:09:20;96984.16;;;20.00;66.05
48390;BME280;34643;47.964;7.982;2023-05-08T01:35:12;96998.25;;;19.99;66.06
48390;BME280;34643;47.964;7.982;2023-05-08T01:40:18;96996.56;;;19.98;65.99
48390;BME280;34643;47.964;7.982;2023-05-08T01:45:21;96998.38;;;19.97;66.05
48390;BME280;34643;47.964;7.982;2023-05-08T01:50:27;96993.13;;;19.97;66.04
48390;BME280;34643;47.964;7.982;2023-05-08T01:55:30;96995.75;;;19.97;66.06
48390;BME280;34643;47.964;7.982;2023-05-08T02:00:33;96989.66;;;19.97;66.02
48390;BME280;34643;47.964;7.982;2023-05-08T02:05:35;96994.88;;;19.97;65.96
48390;BME280;34643;47.964;7.982;2023-05-08T02:10:36;96993.25;;;19.96;66.05
48390;BME280;34643;47.964;7.982;2023-05-08T02:15:37;96998.47;;;19.96;65.94
48390;BME280;34643;47.964;7.982;2023-05-08T02:20:40;96992.41;;;19.95;66.06
48390;BME280;34643;47.964;7.982;2023-05-08T02:25:40;96986.31;;;19.94;65.87
48390;BME280;34643;47.964;7.982;2023-05-08T02:30:42;96987.31;;;19.93;66.08
48390;BME280;34643;47.964;7.982;2023-05-08T02:35:44;96994.19;;;19.94;65.99
48390;BME280;34643;47.964;7.982;2023-05-08T02:40:46;97005.63;;;19.93;66.10
48390;BME280;34643;47.964;7.982;2023-05-08T02:45:48;97005.63;;;19.93;66.01
48390;BME280;34643;47.964;7.982;2023-05-08T02:51:09;97008.25;;;19.93;66.08
48390;BME280;34643;47.964;7.982;2023-05-08T02:56:17;97013.50;;;19.93;65.84
48390;BME280;34643;47.964;7.982;2023-05-08T03:01:28;97017.88;;;19.93;65.92
48390;BME280;34643;47.964;7.982;2023-05-08T03:06:30;97010.88;;;19.93;65.86
48390;BME280;34643;47.964;7.982;2023-05-08T03:11:38;97007.53;;;19.91;65.84
48390;BME280;34643;47.964;7.982;2023-05-08T03:16:40;96997.03;;;19.91;65.91
48390;BME280;34643;47.964;7.982;2023-05-08T03:21:41;96997.03;;;19.91;65.98
48390;BME280;34643;47.964;7.982;2023-05-08T03:26:43;96984.09;;;19.90;65.87
48390;BME280;34643;47.964;7.982;2023-05-08T03:31:44;96984.91;;;19.90;65.90
48390;BME280;34643;47.964;7.982;2023-05-08T03:36:46;96984.91;;;19.90;65.89
48390;BME280;34643;47.964;7.982;2023-05-08T03:41:47;96980.63;;;19.89;65.81
48390;BME280;34643;47.964;7.982;2023-05-08T03:46:49;96979.69;;;19.90;65.87
48390;BME280;34643;47.964;7.982;2023-05-08T03:51:50;96985.88;;;19.89;65.51
48390;BME280;34643;47.964;7.982;2023-05-08T03:56:51;96994.56;;;19.90;65.45
48390;BME280;34643;47.964;7.982;2023-05-08T04:01:58;96998.97;;;19.89;65.46
48390;BME280;34643;47.964;7.982;2023-05-08T04:12:19;97008.63;;;19.89;65.32
48390;BME280;34643;47.964;7.982;2023-05-08T04:17:42;97006.00;;;19.89;65.25
48390;BME280;34643;47.964;7.982;2023-05-08T04:22:42;97007.91;;;19.87;65.21
48390;BME280;34643;47.964;7.982;2023-05-08T04:27:44;97018.16;;;19.90;65.22
48390;BME280;34643;47.964;7.982;2023-05-08T04:32:45;97016.66;;;19.76;63.81
48390;BME280;34643;47.964;7.982;2023-05-08T04:37:47;97015.16;;;19.06;64.00
48390;BME280;34643;47.964;7.982;2023-05-08T04:42:48;97022.28;;;19.15;64.31
48390;BME280;34643;47.964;7.982;2023-05-08T04:47:51;97028.22;;;19.06;63.41
48390;BME280;34643;47.964;7.982;2023-05-08T04:52:52;97026.19;;;19.09;63.26
48390;BME280;34643;47.964;7.982;2023-05-08T04:57:53;97033.56;;;19.38;63.21
48390;BME280;34643;47.964;7.982;2023-05-08T05:02:53;97020.59;;;19.48;63.08
48390;BME280;34643;47.964;7.982;2023-05-08T05:07:54;97031.41;;;19.54;63.06
48390;BME280;34643;47.964;7.982;2023-05-08T05:12:55;97033.66;;;19.59;63.11
48390;BME280;34643;47.964;7.982;2023-05-08T05:17:55;97034.50;;;19.60;63.25
48390;BME280;34643;47.964;7.982;2023-05-08T05:22:56;97035.34;;;19.60;63.30
48390;BME280;34643;47.964;7.982;2023-05-08T05:27:57;97044.00;;;19.61;63.27
48390;BME280;34643;47.964;7.982;2023-05-08T05:32:58;97047.44;;;19.61;63.23
48390;BME280;34643;47.964;7.982;2023-05-08T05:37:58;97045.81;;;19.60;63.43
48390;BME280;34643;47.964;7.982;2023-05-08T05:42:59;97057.94;;;19.61;63.43
48390;BME280;34643;47.964;7.982;2023-05-08T05:47:59;97055.31;;;19.61;63.37
48390;BME280;34643;47.964;7.982;2023-05-08T05:53:00;97064.03;;;19.62;63.31
48390;BME280;34643;47.964;7.982;2023-05-08T05:58:01;97058.78;;;19.62;63.42
48390;BME280;34643;47.964;7.982;2023-05-08T06:03:01;97060.69;;;19.60;63.45
48390;BME280;34643;47.964;7.982;2023-05-08T06:08:03;97062.34;;;19.61;63.28
48390;BME280;34643;47.964;7.982;2023-05-08T06:13:04;97058.91;;;19.60;63.32
48390;BME280;34643;47.964;7.982;2023-05-08T06:18:06;97068.56;;;19.60;63.25
48390;BME280;34643;47.964;7.982;2023-05-08T06:23:07;97065.94;;;19.60;63.25
48390;BME280;34643;47.964;7.982;2023-05-08T06:28:07;97072.00;;;19.60;63.29
48390;BME280;34643;47.964;7.982;2023-05-08T06:33:07;97073.78;;;19.60;63.23
48390;BME280;34643;47.964;7.982;2023-05-08T06:38:08;97074.72;;;19.59;63.17
48390;BME280;34643;47.964;7.982;2023-05-08T06:43:08;97069.50;;;19.59;63.24
48390;BME280;34643;47.964;7.982;2023-05-08T06:48:08;97065.06;;;19.59;63.28
48390;BME280;34643;47.964;7.982;2023-05-08T06:53:08;97069.50;;;19.59;63.30
48390;BME280;34643;47.964;7.982;2023-05-08T06:58:09;97069.50;;;19.59;63.18
48390;BME280;34643;47.964;7.982;2023-05-08T07:03:09;97074.72;;;19.59;63.24
48390;BME280;34643;47.964;7.982;2023-05-08T07:08:09;97072.09;;;19.59;63.10
48390;BME280;34643;47.964;7.982;2023-05-08T07:13:09;97073.91;;;19.58;63.21
48390;BME280;34643;47.964;7.982;2023-05-08T07:18:10;97073.91;;;19.58;63.19
48390;BME280;34643;47.964;7.982;2023-05-08T07:23:10;97078.28;;;19.57;63.31
48390;BME280;34643;47.964;7.982;2023-05-08T07:28:10;97072.09;;;19.59;63.21
48390;BME280;34643;47.964;7.982;2023-05-08T07:33:11;97084.38;;;19.58;63.18
48390;BME280;34643;47.964;7.982;2023-05-08T07:38:11;97083.53;;;19.57;63.23
48390;BME280;34643;47.964;7.982;2023-05-08T07:43:11;97091.38;;;19.57;63.18
48390;BME280;34643;47.964;7.982;2023-05-08T07:48:12;97095.78;;;19.57;63.10
48390;BME280;34643;47.964;7.982;2023-05-08T07:53:12;97087.94;;;19.57;63.21
48390;BME280;34643;47.964;7.982;2023-05-08T07:58:13;97093.28;;;19.55;63.14
48390;BME280;34643;47.964;7.982;2023-05-08T08:03:13;97095.91;;;19.55;63.20
48390;BME280;34643;47.964;7.982;2023-05-08T08:08:13;97094.13;;;19.56;63.10
48390;BME280;34643;47.964;7.982;2023-05-08T08:13:14;97095.91;;;19.55;62.98
48390;BME280;34643;47.964;7.982;2023-05-08T08:18:14;97094.13;;;19.56;63.03
48390;BME280;34643;47.964;7.982;2023-05-08T08:23:14;97094.97;;;19.56;63.06
48390;BME280;34643;47.964;7.982;2023-05-08T08:28:14;97094.13;;;19.56;63.19
48390;BME280;34643;47.964;7.982;2023-05-08T08:33:16;97094.00;;;19.57;63.11
48390;BME280;34643;47.964;7.982;2023-05-08T08:38:16;97096.59;;;19.57;63.10
48390;BME280;34643;47.964;7.982;2023-05-08T08:43:16;97093.06;;;19.59;63.11
48390;BME280;34643;47.964;7.982;2023-05-08T08:48:17;97094.72;;;19.60;63.02
48390;BME280;34643;47.964;7.982;2023-05-08T08:53:25;97093.75;;;19.61;63.15
48390;BME280;34643;47.964;7.982;2023-05-08T08:58:30;97088.53;;;19.61;63.19
48390;BME280;34643;47.964;7.982;2023-05-08T09:03:32;97084.97;;;19.62;63.14
48390;BME280;34643;47.964;7.982;2023-05-08T09:08:32;97090.09;;;19.63;63.17
48390;BME280;34643;47.964;7.982;2023-05-08T09:13:33;97085.56;;;19.65;63.26
48390;BME280;34643;47.964;7.982;2023-05-08T09:18:33;97086.38;;;19.66;62.99
48390;BME280;34643;47.964;7.982;2023-05-08T09:23:34;97094.13;;;19.67;63.11
48390;BME280;34643;47.964;7.982;2023-05-08T09:28:35;97094.94;;;19.68;63.03
48390;BME280;34643;47.964;7.982;2023-05-08T09:33:36;97087.09;;;19.68;63.12
48390;BME280;34643;47.964;7.982;2023-05-08T09:38:42;97094.13;;;19.67;63.01
48390;BME280;34643;47.964;7.982;2023-05-08T09:43:43;97092.31;;;19.68;62.98
48390;BME280;34643;47.964;7.982;2023-05-08T09:48:43;97097.56;;;19.68;62.99
48390;BME280;34643;47.964;7.982;2023-05-08T09:53:45;97099.25;;;19.69;63.06
48390;BME280;34643;47.964;7.982;2023-05-08T09:58:45;97103.63;;;19.68;63.05
48390;BME280;34643;47.964;7.982;2023-05-08T10:03:46;97108.03;;;19.68;63.09
48390;BME280;34643;47.964;7.982;2023-05-08T10:08:47;97107.22;;;19.67;63.02
48390;BME280;34643;47.964;7.982;2023-05-08T10:13:47;97109.84;;;19.67;63.02
48390;BME280;34643;47.964;7.982;2023-05-08T10:18:48;97113.28;;;19.68;63.13
48390;BME280;34643;47.964;7.982;2023-05-08T10:23:49;97115.06;;;19.67;63.01
48390;BME280;34643;47.964;7.982;2023-05-08T10:28:54;97114.25;;;19.67;63.03
48390;BME280;34643;47.964;7.982;2023-05-08T10:33:56;97109.84;;;19.67;62.97
48390;BME280;34643;47.964;7.982;2023-05-08T10:39:00;97107.22;;;19.67;63.03
48390;BME280;34643;47.964;7.982;2023-05-08T10:44:00;97103.63;;;19.68;63.13
48390;BME280;34643;47.964;7.982;2023-05-08T10:49:23;97099.13;;;19.70;62.90
48390;BME280;34643;47.964;7.982;2023-05-08T10:59:44;97084.84;;;19.74;63.02
48390;BME280;34643;47.964;7.982;2023-05-08T11:04:45;97079.50;;;19.76;63.03
48390;BME280;34643;47.964;7.982;2023-05-08T11:09:46;97069.97;;;19.75;63.01
48390;BME280;34643;47.964;7.982;2023-05-08T11:14:54;97072.47;;;19.77;63.08
48390;BME280;34643;47.964;7.982;2023-05-08T11:19:58;97066.41;;;19.76;63.14
48390;BME280;34643;47.964;7.982;2023-05-08T11:25:06;97059.25;;;19.78;63.26
48390;BME280;34643;47.964;7.982;2023-05-08T11:30:17;97055.69;;;19.79;63.10
48390;BME280;34643;47.964;7.982;2023-05-08T11:35:30;97056.50;;;19.80;63.19
48390;BME280;34643;47.964;7.982;2023-05-08T11:46:05;97050.19;;;19.82;63.19
48390;BME280;34643;47.964;7.982;2023-05-08T11:51:07;97054.59;;;19.82;63.29
48390;BME280;34643;47.964;7.982;2023-05-08T11:56:08;97051.03;;;19.83;63.30
48390;BME280;34643;47.964;7.982;2023-05-08T12:01:08;97051.97;;;19.82;63.25
48390;BME280;34643;47.964;7.982;2023-05-08T12:06:08;97044.94;;;19.82;63.30
48390;BME280;34643;47.964;7.982;2023-05-08T12:11:09;97050.06;;;19.84;63.37
48390;BME280;34643;47.964;7.982;2023-05-08T12:16:09;97045.66;;;19.84;63.45
48390;BME280;34643;47.964;7.982;2023-05-08T12:21:10;97041.38;;;19.83;63.34
48390;BME280;34643;47.964;7.982;2023-05-08T12:26:10;97033.53;;;19.83;63.39
48390;BME280;34643;47.964;7.982;2023-05-08T12:31:11;97036.97;;;19.84;63.33
48390;BME280;34643;47.964;7.982;2023-05-08T12:36:12;97036.16;;;19.83;63.47
48390;BME280;34643;47.964;7.982;2023-05-08T12:41:12;97039.47;;;19.85;63.45
48390;BME280;34643;47.964;7.982;2023-05-08T12:46:12;97045.53;;;19.86;63.46
48390;BME280;34643;47.964;7.982;2023-05-08T12:51:13;97035.06;;;19.86;63.44
48390;BME280;34643;47.964;7.982;2023-05-08T12:56:13;97042.91;;;19.86;63.48
48390;BME280;34643;47.964;7.982;2023-05-08T13:01:20;97044.72;;;19.85;63.49
48390;BME280;34643;47.964;7.982;2023-05-08T13:06:21;97049.94;;;19.85;63.56
48390;BME280;34643;47.964;7.982;2023-05-08T13:11:28;97043.88;;;19.85;63.45
48390;BME280;34643;47.964;7.982;2023-05-08T13:16:29;97047.31;;;19.85;63.59
48390;BME280;34643;47.964;7.982;2023-05-08T13:21:29;97043.88;;;19.85;63.44
48390;BME280;34643;47.964;7.982;2023-05-08T13:26:30;97043.03;;;19.84;63.57
48390;BME280;34643;47.964;7.982;2023-05-08T13:31:30;97036.84;;;19.85;63.53
48390;BME280;34643;47.964;7.982;2023-05-08T13:36:31;97031.72;;;19.84;63.48
48390;BME280;34643;47.964;7.982;2023-05-08T13:41:31;97032.56;;;19.84;63.46
48390;BME280;34643;47.964;7.982;2023-05-08T13:46:31;97022.06;;;19.84;63.61
48390;BME280;34643;47.964;7.982;2023-05-08T13:51:31;97013.41;;;19.84;63.51
48390;BME280;34643;47.964;7.982;2023-05-08T13:56:32;97014.22;;;19.84;63.56
48390;BME280;34643;47.964;7.982;2023-05-08T14:01:32;97011.59;;;19.84;63.49
48390;BME280;34643;47.964;7.982;2023-05-08T14:06:32;97007.34;;;19.83;63.50
48390;BME280;34643;47.964;7.982;2023-05-08T14:11:32;97001.13;;;19.84;63.49
48390;BME280;34643;47.964;7.982;2023-05-08T14:16:33;97002.91;;;19.84;63.54
48390;BME280;34643;47.964;7.982;2023-05-08T14:21:33;97003.75;;;19.84;63.60
48390;BME280;34643;47.964;7.982;2023-05-08T14:26:34;97006.34;;;19.84;63.54
48390;BME280;34643;47.964;7.982;2023-05-08T14:31:34;97002.09;;;19.83;63.41
48390;BME280;34643;47.964;7.982;2023-05-08T14:36:34;97003.88;;;19.83;63.40
48390;BME280;34643;47.964;7.982;2023-05-08T14:41:35;97000.31;;;19.84;63.50
48390;BME280;34643;47.964;7.982;2023-05-08T14:46:37;97000.41;;;19.82;63.60
48390;BME280;34643;47.964;7.982;2023-05-08T14:51:37;96996.97;;;19.82;63.35
48390;BME280;34643;47.964;7.982;2023-05-08T14:56:37;96990.78;;;19.83;63.45
48390;BME280;34643;47.964;7.982;2023-05-08T15:01:38;96989.13;;;19.82;63.45
48390;BME280;34643;47.964;7.982;2023-05-08T15:06:41;97000.41;;;19.82;63.45
48390;BME280;34643;47.964;7.982;2023-05-08T15:11:42;97011.88;;;19.81;63.49
48390;BME280;34643;47.964;7.982;2023-05-08T15:16:42;97024.09;;;19.81;63.47
48390;BME280;34643;47.964;7.982;2023-05-08T15:21:42;97025.91;;;19.80;63.43
48390;BME280;34643;47.964;7.982;2023-05-08T15:26:42;97038.53;;;19.75;63.24
48390;BME280;34643;47.964;7.982;2023-05-08T15:31:43;97044.00;;;19.72;63.18
48390;BME280;34643;47.964;7.982;2023-05-08T15:36:43;97043.28;;;19.70;62.98
48390;BME280;34643;47.964;7.982;2023-05-08T15:41:43;97045.06;;;19.69;62.93
48390;BME280;34643;47.964;7.982;2023-05-08T15:46:44;97050.44;;;19.68;62.71
48390;BME280;34643;47.964;7.982;2023-05-08T15:51:44;97053.03;;;19.68;62.79
48390;BME280;34643;47.964;7.982;2023-05-08T15:56:44;97064.22;;;19.70;62.63
48390;BME280;34643;47.964;7.982;2023-05-08T16:01:44;97065.06;;;19.70;62.82
48390;BME280;34643;47.964;7.982;2023-05-08T16:06:45;97071.38;;;19.68;62.68
48390;BME280;34643;47.964;7.982;2023-05-08T16:11:46;97070.66;;;19.66;62.71
48390;BME280;34643;47.964;7.982;2023-05-08T16:16:47;97070.91;;;19.63;62.52
48390;BME280;34643;47.964;7.982;2023-05-08T16:21:47;97082.09;;;19.65;62.58
48390;BME280;34643;47.964;7.982;2023-05-08T16:26:47;97079.34;;;19.66;62.71
48390;BME280;34643;47.964;7.982;2023-05-08T16:31:47;97077.59;;;19.67;62.79
48390;BME280;34643;47.964;7.982;2023-05-08T16:36:48;97084.47;;;19.68;62.92
48390;BME280;34643;47.964;7.982;2023-05-08T16:41:48;97083.66;;;19.67;63.08
48390;BME280;34643;47.964;7.982;2023-05-08T16:46:48;97076.63;;;19.68;63.33
48390;BME280;34643;47.964;7.982;2023-05-08T16:51:50;97081.97;;;19.66;63.17
48390;BME280;34643;47.964;7.982;2023-05-08T16:56:50;97078.41;;;19.67;63.16
48390;BME280;34643;47.964;7.982;2023-05-08T17:01:50;97075.44;;;19.72;63.02
48390;BME280;34643;47.964;7.982;2023-05-08T17:06:50;97077.94;;;19.73;63.25
48390;BME280;34643;47.964;7.982;2023-05-08T17:11:51;97074.03;;;19.79;63.33
48390;BME280;34643;47.964;7.982;2023-05-08T17:16:51;97068.53;;;19.82;63.86
48390;BME280;34643;47.964;7.982;2023-05-08T17:21:52;97069.22;;;19.84;64.28
48390;BME280;34643;47.964;7.982;2023-05-08T17:26:52;97075.19;;;19.86;64.16
48390;BME280;34643;47.964;7.982;2023-05-08T17:31:52;97073.41;;;19.87;64.07
48390;BME280;34643;47.964;7.982;2023-05-08T17:36:53;97075.91;;;19.88;63.99
48390;BME280;34643;47.964;7.982;2023-05-08T17:41:53;97071.72;;;19.86;64.15
48390;BME280;34643;47.964;7.982;2023-05-08T17:46:54;97079.59;;;19.86;64.16
48390;BME280;34643;47.964;7.982;2023-05-08T17:51:55;97079.34;;;19.89;64.37
48390;BME280;34643;47.964;7.982;2023-05-08T17:56:55;97076.72;;;19.89;64.49
48390;BME280;34643;47.964;7.982;2023-05-08T18:01:55;97080.78;;;19.82;64.40
48390;BME280;34643;47.964;7.982;2023-05-08T18:06:55;97080.78;;;19.82;64.13
48390;BME280;34643;47.964;7.982;2023-05-08T18:11:56;97083.53;;;19.80;64.36
48390;BME280;34643;47.964;7.982;2023-05-08T18:17:01;97083.53;;;19.80;64.37
48390;BME280;34643;47.964;7.982;2023-05-08T18:22:01;97081.88;;;19.79;64.37
48390;BME280;34643;47.964;7.982;2023-05-08T18:27:01;97082.72;;;19.80;64.46
48390;BME280;34643;47.964;7.982;2023-05-08T18:32:02;97081.88;;;19.79;64.53
48390;BME280;34643;47.964;7.982;2023-05-08T18:37:02;97087.94;;;19.80;64.53
48390;BME280;34643;47.964;7.982;2023-05-08T18:42:02;97088.78;;;19.80;64.53
48390;BME280;34643;47.964;7.982;2023-05-08T18:47:03;97094.81;;;19.81;64.73
48390;BME280;34643;47.964;7.982;2023-05-08T18:52:04;97103.53;;;19.81;64.66
48390;BME280;34643;47.964;7.982;2023-05-08T18:57:04;97101.75;;;19.82;64.62
48390;BME280;34643;47.964;7.982;2023-05-08T19:02:04;97101.75;;;19.82;64.64
48390;BME280;34643;47.964;7.982;2023-05-08T19:07:05;97093.88;;;19.82;64.65
48390;BME280;34643;47.964;7.982;2023-05-08T19:12:05;97097.34;;;19.82;64.71
48390;BME280;34643;47.964;7.982;2023-05-08T19:17:05;97094.72;;;19.82;64.67
48390;BME280;34643;47.964;7.982;2023-05-08T19:22:06;97095.69;;;19.81;64.68
48390;BME280;34643;47.964;7.982;2023-05-08T19:27:06;97096.50;;;19.82;64.65
48390;BME280;34643;47.964;7.982;2023-05-08T19:32:06;97101.75;;;19.82;64.80
48390;BME280;34643;47.964;7.982;2023-05-08T19:37:07;97095.69;;;19.81;64.80
48390;BME280;34643;47.964;7.982;2023-05-08T19:42:07;97098.31;;;19.81;64.82
48390;BME280;34643;47.964;7.982;2023-05-08T19:47:09;97095.69;;;19.81;64.86
48390;BME280;34643;47.964;7.982;2023-05-08T19:52:09;97104.25;;;19.83;64.83
48390;BME280;34643;47.964;7.982;2023-05-08T19:57:10;97113.31;;;19.79;64.82
48390;BME280;34643;47.964;7.982;2023-05-08T20:02:10;97111.75;;;19.77;64.99
48390;BME280;34643;47.964;7.982;2023-05-08T20:07:11;97111.97;;;19.73;65.00
48390;BME280;34643;47.964;7.982;2023-05-08T20:12:11;97122.94;;;19.79;65.14
48390;BME280;34643;47.964;7.982;2023-05-08T20:17:11;97122.34;;;19.75;65.25
48390;BME280;34643;47.964;7.982;2023-05-08T20:22:12;97112.94;;;19.72;65.39
48390;BME280;34643;47.964;7.982;2023-05-08T20:27:12;97111.13;;;19.73;65.66
48390;BME280;34643;47.964;7.982;2023-05-08T20:32:12;97119.00;;;19.73;65.63
48390;BME280;34643;47.964;7.982;2023-05-08T20:37:13;97117.22;;;19.73;65.96
48390;BME280;34643;47.964;7.982;2023-05-08T20:42:15;97111.97;;;19.73;66.00
48390;BME280;34643;47.964;7.982;2023-05-08T20:47:15;97108.50;;;19.73;65.91
48390;BME280;34643;47.964;7.982;2023-05-08T20:52:15;97108.50;;;19.73;66.07
48390;BME280;34643;47.964;7.982;2023-05-08T20:57:15;97111.97;;;19.73;66.41
48390;BME280;34643;47.964;7.982;2023-05-08T21:02:17;97119.84;;;19.73;66.13
48390;BME280;34643;47.964;7.982;2023-05-08T21:07:17;97108.50;;;19.73;66.34
48390;BME280;34643;47.964;7.982;2023-05-08T21:12:17;97109.38;;;19.73;66.52
48390;BME280;34643;47.964;7.982;2023-05-08T21:17:18;97099.47;;;19.77;66.47
48390;BME280;34643;47.964;7.982;2023-05-08T21:22:18;97100.44;;;19.76;66.48
48390;BME280;34643;47.964;7.982;2023-05-08T21:27:19;97096.16;;;19.75;66.28
48390;BME280;34643;47.964;7.982;2023-05-08T21:32:19;97097.13;;;19.74;66.77
48390;BME280;34643;47.964;7.982;2023-05-08T21:37:19;97086.75;;;19.72;66.64
48390;BME280;34643;47.964;7.982;2023-05-08T21:42:20;97090.28;;;19.71;66.77
48390;BME280;34643;47.964;7.982;2023-05-08T21:47:21;97081.50;;;19.72;66.79
48390;BME280;34643;47.964;7.982;2023-05-08T21:52:21;97069.34;;;19.71;66.70
48390;BME280;34643;47.964;7.982;2023-05-08T21:57:22;97071.97;;;19.71;66.83
48390;BME280;34643;47.964;7.982;2023-05-08T22:02:22;97060.66;;;19.71;66.95
48390;BME280;34643;47.964;7.982;2023-05-08T22:07:22;97061.59;;;19.70;66.91
48390;BME280;34643;47.964;7.982;2023-05-08T22:12:22;97059.84;;;19.70;66.93
48390;BME280;34643;47.964;7.982;2023-05-08T22:17:23;97056.38;;;19.70;66.94
48390;BME280;34643;47.964;7.982;2023-05-08T22:22:23;97040.78;;;19.68;67.00
48390;BME280;34643;47.964;7.982;2023-05-08T22:27:23;97042.56;;;19.68;67.00
48390;BME280;34643;47.964;7.982;2023-05-08T22:32:23;97032.91;;;19.68;67.02
48390;BME280;34643;47.964;7.982;2023-05-08T22:37:24;97035.69;;;19.67;67.00
48390;BME280;34643;47.964;7.982;2023-05-08T22:42:25;97030.44;;;19.67;67.01
48390;BME280;34643;47.964;7.982;2023-05-08T22:47:25;97025.22;;;19.67;66.95
48390;BME280;34643;47.964;7.982;2023-05-08T22:52:27;97013.88;;;19.66;67.23
48390;BME280;34643;47.964;7.982;2023-05-08T22:57:27;97021.75;;;19.66;67.15
48390;BME280;34643;47.964;7.982;2023-05-08T23:02:31;97013.06;;;19.66;67.30
48390;BME280;34643;47.964;7.982;2023-05-08T23:07:32;97020.09;;;19.65;67.16
48390;BME280;34643;47.964;7.982;2023-05-08T23:12:32;97014.84;;;19.65;67.26
48390;BME280;34643;47.964;7.982;2023-05-08T23:17:32;97020.91;;;19.66;67.31
48390;BME280;34643;47.964;7.982;2023-05-08T23:22:33;97025.31;;;19.65;67.31
48390;BME280;34643;47.964;7.982;2023-05-08T23:27:33;97015.78;;;19.64;67.27
48390;BME280;34643;47.964;7.982;2023-05-08T23:32:33;97009.75;;;19.64;67.40
48390;BME280;34643;47.964;7.982;2023-05-08T23:37:33;97016.63;;;19.65;67.15
48390;BME280;34643;47.964;7.982;2023-05-08T23:42:34;97003.69;;;19.63;67.21
48390;BME280;34643;47.964;7.982;2023-05-08T23:47:36;97007.13;;;19.64;67.24
48390;BME280;34643;47.964;7.982;2023-05-08T23:52:36;96995.81;;;19.63;67.44
48390;BME280;34643;47.964;7.982;2023-05-08T23:57:36;96994.16;;;19.62;67.29
